Time;durP1;ratioP1;P1;durP2;ratioP2;P2;SDS_P1;SDS_P2;PMS_P1;PMS_P2;Temp;Humidity;BMP_temperature;BMP_pressure;BME280_temperature;BME280_humidity;BME280_pressure;Samples;Min_cycle;Max_cycle;Signal;HPM_P1;HPM_P2
2021/05/07 00:01:03;;;;;;;11.90;4.05;;;;;;;13.30;70.92;100758.73;1784584;80;21504;-63
2021/05/07 00:03:31;;;;;;;9.10;3.95;;;;;;;13.29;71.24;100761.02;1784251;79;21225;-64
2021/05/07 00:06:02;;;;;;;5.83;2.67;;;;;;;13.31;71.82;100758.67;1784717;80;21165;-64
2021/05/07 00:08:34;;;;;;;9.33;3.30;;;;;;;13.35;72.75;100762.08;1784315;79;21360;-64
2021/05/07 00:11:14;;;;;;;10.63;4.53;;;;;;;13.44;72.99;100761.70;1784632;79;21233;-63
2021/05/07 00:13:46;;;;;;;8.90;3.20;;;;;;;13.51;72.75;100765.44;1784982;79;21209;-62
2021/05/07 00:16:16;;;;;;;5.92;3.22;;;;;;;13.51;72.78;100760.05;1784582;79;21322;-62
2021/05/07 00:18:45;;;;;;;7.03;3.83;;;;;;;13.51;72.94;100762.28;1785611;80;21185;-62
2021/05/07 00:21:12;;;;;;;4.83;3.72;;;;;;;13.52;73.07;100764.49;1786803;78;21233;-62
2021/05/07 00:23:41;;;;;;;14.25;3.42;;;;;;;13.53;73.22;100764.89;1780560;79;21254;-63
2021/05/07 00:26:09;;;;;;;6.40;3.27;;;;;;;13.55;73.30;100763.00;1763525;81;21202;-63
2021/05/07 00:28:37;;;;;;;6.85;3.72;;;;;;;13.62;73.41;100775.25;1763368;81;21142;-63
2021/05/07 00:31:05;;;;;;;10.58;4.00;;;;;;;13.67;73.39;100777.24;1763346;81;21174;-63
2021/05/07 00:33:34;;;;;;;6.87;4.70;;;;;;;13.72;73.30;100779.73;1763322;80;21636;-63
2021/05/07 00:36:02;;;;;;;13.18;4.95;;;;;;;13.77;73.28;100773.63;1763268;80;21234;-64
2021/05/07 00:38:32;;;;;;;8.68;4.15;;;;;;;13.81;73.18;100777.03;1763288;81;22142;-63
2021/05/07 00:41:00;;;;;;;12.50;5.87;;;;;;;13.84;73.06;100774.22;1763683;81;21181;-63
2021/05/07 00:43:28;;;;;;;12.05;5.22;;;;;;;13.83;72.76;100762.55;1763333;81;21202;-63
2021/05/07 00:45:56;;;;;;;26.05;5.22;;;;;;;13.82;71.80;100768.03;1763384;81;22897;-63
2021/05/07 00:48:24;;;;;;;16.55;5.70;;;;;;;13.67;71.38;100766.92;1763388;81;21214;-62
2021/05/07 00:50:52;;;;;;;29.92;7.28;;;;;;;13.50;71.29;100765.04;1734227;81;21208;-62
2021/05/07 00:53:21;;;;;;;33.60;7.28;;;;;;;13.35;72.14;100775.54;1773066;80;21181;-61
2021/05/07 00:55:50;;;;;;;17.65;5.42;;;;;;;13.26;72.21;100759.83;1787114;78;21181;-62
2021/05/07 00:58:18;;;;;;;18.10;6.67;;;;;;;13.17;72.42;100756.63;1785209;79;21668;-62
2021/05/07 01:00:49;;;;;;;10.32;5.67;;;;;;;13.10;72.96;100751.58;1739134;79;21257;-63
2021/05/07 01:03:17;;;;;;;15.98;5.75;;;;;;;13.06;73.54;100749.49;1746024;82;21198;-62
2021/05/07 01:05:46;;;;;;;14.83;6.42;;;;;;;13.05;73.98;100754.47;1794929;79;21186;-64
2021/05/07 01:08:15;;;;;;;13.80;6.62;;;;;;;13.07;74.05;100762.00;1746080;82;21229;-62
2021/05/07 01:10:45;;;;;;;16.42;6.35;;;;;;;13.06;74.03;100764.30;1793587;79;22337;-62
2021/05/07 01:13:14;;;;;;;17.23;6.80;;;;;;;13.00;74.39;100772.66;1745700;80;21214;-62
2021/05/07 01:15:45;;;;;;;25.92;7.33;;;;;;;12.87;74.40;100777.22;1795166;79;21213;-61
2021/05/07 01:18:15;;;;;;;20.97;6.75;;;;;;;12.71;75.01;100769.42;1746309;82;21166;-62
2021/05/07 01:20:43;;;;;;;25.23;7.25;;;;;;;12.57;75.68;100772.70;1795354;78;21068;-63
2021/05/07 01:23:13;;;;;;;19.12;8.88;;;;;;;12.40;76.31;100772.09;1751832;80;22180;-61
2021/05/07 01:25:43;;;;;;;28.32;9.58;;;;;;;12.23;77.67;100772.33;1813634;79;21185;-63
2021/05/07 01:28:13;;;;;;;21.73;9.83;;;;;;;12.13;79.43;100783.06;1777317;80;21201;-61
2021/05/07 01:30:44;;;;;;;16.95;8.95;;;;;;;12.03;80.09;100787.45;1813586;79;21221;-62
2021/05/07 01:33:15;;;;;;;20.70;8.83;;;;;;;11.98;80.36;100790.77;1812603;79;21216;-62
2021/05/07 01:35:46;;;;;;;16.42;8.20;;;;;;;11.98;80.36;100785.88;1780273;79;21616;-63
2021/05/07 01:38:15;;;;;;;19.15;8.18;;;;;;;12.03;80.57;100786.11;1812805;79;21758;-61
2021/05/07 01:40:46;;;;;;;17.23;8.58;;;;;;;12.13;80.75;100787.09;1777641;80;21644;-61
2021/05/07 01:43:16;;;;;;;20.65;8.73;;;;;;;12.23;80.81;100789.80;1812929;79;21899;-63
2021/05/07 01:45:45;;;;;;;17.37;8.98;;;;;;;12.28;80.79;100783.78;1777492;80;21232;-61
2021/05/07 01:48:15;;;;;;;14.90;8.70;;;;;;;12.35;80.90;100791.09;1812990;79;22374;-65
2021/05/07 01:50:45;;;;;;;16.20;7.62;;;;;;;12.38;80.75;100788.77;1777316;80;21221;-62
2021/05/07 01:53:13;;;;;;;12.20;7.78;;;;;;;12.42;80.90;100790.38;1797609;79;21196;-62
2021/05/07 01:55:47;;;;;;;13.40;6.75;;;;;;;12.46;81.00;100790.65;1781439;80;21201;-62
2021/05/07 01:58:35;;;;;;;12.60;5.90;;;;;;;12.48;81.08;100798.17;1780546;80;21232;-63
2021/05/07 02:01:03;;;;;;;12.10;5.70;;;;;;;12.52;81.17;100793.09;1780925;79;21639;-62
2021/05/07 02:03:32;;;;;;;12.33;6.25;;;;;;;12.60;81.47;100794.13;1780865;80;21185;-63
2021/05/07 02:06:05;;;;;;;17.23;7.22;;;;;;;12.69;81.55;100791.48;1780788;79;21193;-62
2021/05/07 02:08:35;;;;;;;17.35;7.60;;;;;;;12.79;81.57;100789.27;1780920;79;21213;-61
2021/05/07 02:11:03;;;;;;;15.95;7.62;;;;;;;12.86;81.65;100788.08;1781441;80;21174;-62
2021/05/07 02:13:33;;;;;;;13.35;7.60;;;;;;;12.89;81.48;100787.45;1780898;80;21236;-63
2021/05/07 02:16:01;;;;;;;13.68;7.28;;;;;;;12.94;81.00;100786.39;1781531;79;21208;-62
2021/05/07 02:18:29;;;;;;;16.37;7.75;;;;;;;12.92;80.62;100777.48;1780875;80;21194;-62
2021/05/07 02:20:59;;;;;;;17.27;8.08;;;;;;;12.89;80.76;100780.72;1786274;79;21763;-62
2021/05/07 02:23:29;;;;;;;46.55;11.15;;;;;;;12.92;80.33;100785.56;1783297;79;21157;-62
2021/05/07 02:25:58;;;;;;;94.83;12.68;;;;;;;12.76;79.88;100797.02;1770394;80;22801;-61
2021/05/07 02:28:28;;;;;;;41.37;10.23;;;;;;;12.56;81.17;100795.17;1769064;80;21200;-62
2021/05/07 02:30:56;;;;;;;35.08;10.55;;;;;;;12.37;82.01;100789.70;1770862;80;21173;-61
2021/05/07 02:33:26;;;;;;;29.52;9.40;;;;;;;12.31;82.87;100789.03;1770393;80;21189;-62
2021/05/07 02:35:53;;;;;;;25.10;9.40;;;;;;;12.36;83.87;100790.64;1770848;80;21192;-61
2021/05/07 02:38:21;;;;;;;22.55;8.88;;;;;;;12.47;84.31;100797.77;1770308;80;22106;-61
2021/05/07 02:40:50;;;;;;;17.12;8.45;;;;;;;12.53;84.52;100796.19;1770896;80;21251;-61
2021/05/07 02:43:18;;;;;;;23.18;8.08;;;;;;;12.63;84.61;100802.51;1770494;80;21200;-61
2021/05/07 02:45:46;;;;;;;18.70;7.65;;;;;;;12.72;84.36;100807.52;1770204;80;21267;-61
2021/05/07 02:48:14;;;;;;;22.98;8.60;;;;;;;12.79;84.13;100813.02;1763689;79;21177;-61
2021/05/07 02:50:43;;;;;;;19.67;8.00;;;;;;;12.88;83.90;100818.48;1754561;81;21325;-63
2021/05/07 02:53:12;;;;;;;17.82;8.03;;;;;;;12.95;83.62;100817.74;1735864;81;21225;-63
2021/05/07 02:55:40;;;;;;;21.10;7.67;;;;;;;13.00;83.33;100823.79;1735620;82;21198;-61
2021/05/07 02:58:09;;;;;;;24.37;8.43;;;;;;;13.04;83.13;100820.91;1735735;81;21259;-60
2021/05/07 03:00:37;;;;;;;17.20;8.13;;;;;;;13.10;82.89;100811.66;1735393;82;21130;-61
2021/05/07 03:03:05;;;;;;;20.12;8.55;;;;;;;13.13;82.85;100819.59;1735759;81;22841;-61
2021/05/07 03:05:33;;;;;;;17.02;8.35;;;;;;;13.18;82.80;100814.90;1735472;82;21197;-62
2021/05/07 03:08:01;;;;;;;23.05;9.23;;;;;;;13.22;82.56;100809.38;1736009;81;21205;-62
2021/05/07 03:10:29;;;;;;;29.10;9.65;;;;;;;13.22;82.40;100808.89;1735644;82;21202;-62
2021/05/07 03:12:57;;;;;;;24.45;9.05;;;;;;;13.23;82.51;100820.05;1736145;82;21223;-62
2021/05/07 03:15:25;;;;;;;23.42;8.90;;;;;;;13.28;82.47;100821.20;1735648;82;22846;-62
2021/05/07 03:17:55;;;;;;;25.95;8.75;;;;;;;13.31;82.37;100821.06;1735450;81;21225;-62
2021/05/07 03:20:22;;;;;;;18.80;9.28;;;;;;;13.36;82.37;100827.10;1734074;82;21198;-62
2021/05/07 03:22:51;;;;;;;28.20;9.20;;;;;;;13.43;82.27;100820.55;1764567;81;21190;-61
2021/05/07 03:25:19;;;;;;;22.55;9.43;;;;;;;13.52;82.09;100822.41;1721544;82;21178;-61
2021/05/07 03:27:47;;;;;;;24.27;8.70;;;;;;;13.57;81.92;100820.36;1736382;81;21363;-61
2021/05/07 03:30:16;;;;;;;23.60;9.93;;;;;;;13.64;81.60;100823.19;1735874;82;21234;-61
2021/05/07 03:32:45;;;;;;;24.37;9.08;;;;;;;13.69;81.31;100822.50;1735768;82;21202;-61
2021/05/07 03:35:13;;;;;;;24.80;8.78;;;;;;;13.78;81.22;100826.58;1735992;82;21229;-61
2021/05/07 03:37:41;;;;;;;31.00;9.18;;;;;;;13.85;81.08;100821.78;1736464;82;21546;-63
2021/05/07 03:40:11;;;;;;;18.87;9.15;;;;;;;13.94;80.69;100820.47;1736146;82;21207;-63
2021/05/07 03:42:39;;;;;;;31.80;9.68;;;;;;;14.02;80.34;100820.47;1735720;82;21167;-62
2021/05/07 03:45:09;;;;;;;33.25;9.73;;;;;;;14.09;80.01;100825.59;1736076;82;21198;-62
2021/05/07 03:47:38;;;;;;;18.02;8.90;;;;;;;14.14;79.96;100828.92;1733270;82;21632;-61
2021/05/07 03:50:11;;;;;;;32.90;8.75;;;;;;;14.21;79.82;100835.75;1747778;81;21182;-63
2021/05/07 03:52:38;;;;;;;29.50;9.50;;;;;;;14.27;79.60;100834.13;1732088;82;21645;-61
2021/05/07 03:55:08;;;;;;;25.72;9.05;;;;;;;14.39;79.35;100834.45;1766057;81;21184;-61
2021/05/07 03:57:36;;;;;;;33.70;9.25;;;;;;;14.50;78.82;100835.27;1765981;80;21712;-61
2021/05/07 04:00:06;;;;;;;22.25;9.63;;;;;;;14.57;78.42;100836.70;1726668;82;21250;-63
2021/05/07 04:02:36;;;;;;;20.30;9.08;;;;;;;14.65;77.78;100834.50;1722034;83;22176;-60
2021/05/07 04:05:05;;;;;;;20.77;9.23;;;;;;;14.71;77.29;100825.27;1723183;83;22296;-62
2021/05/07 04:07:33;;;;;;;26.77;9.40;;;;;;;14.78;77.30;100832.08;1735398;81;21687;-62
2021/05/07 04:10:07;;;;;;;23.92;8.45;;;;;;;14.89;77.06;100831.03;1802194;79;21186;-62
2021/05/07 04:15:07;;;;;;;22.37;9.80;;;;;;;15.12;75.58;100841.10;1766381;81;21198;-63
2021/05/07 04:17:35;;;;;;;26.12;9.30;;;;;;;15.22;75.26;100839.28;1765945;81;21656;-62
2021/05/07 04:20:05;;;;;;;14.93;9.00;;;;;;;15.30;75.15;100838.38;1766388;80;21203;-62
2021/05/07 04:22:33;;;;;;;21.50;10.45;;;;;;;15.35;75.11;100845.75;1766249;81;21201;-62
2021/05/07 04:25:01;;;;;;;23.75;10.75;;;;;;;15.37;75.53;100847.92;1737671;81;21191;-62
2021/05/07 04:27:29;;;;;;;19.98;12.53;;;;;;;15.41;75.90;100852.20;1735712;81;21726;-62
2021/05/07 04:29:57;;;;;;;18.48;11.30;;;;;;;15.44;76.28;100846.63;1736193;81;22330;-62
2021/05/07 04:32:25;;;;;;;25.37;12.43;;;;;;;15.44;76.89;100856.09;1735878;82;21267;-62
2021/05/07 04:34:54;;;;;;;24.47;12.90;;;;;;;15.46;77.21;100860.92;1735891;81;21221;-62
2021/05/07 04:37:22;;;;;;;21.10;11.63;;;;;;;15.53;77.71;100857.87;1732724;81;21223;-62
2021/05/07 04:39:50;;;;;;;22.07;11.53;;;;;;;15.58;77.75;100854.45;1728293;82;21659;-62
2021/05/07 04:42:18;;;;;;;21.00;12.70;;;;;;;15.59;77.91;100858.92;1713129;82;21643;-62
2021/05/07 04:44:48;;;;;;;26.02;13.85;;;;;;;15.61;78.06;100865.11;1735705;82;21201;-62
2021/05/07 04:47:16;;;;;;;29.05;13.72;;;;;;;15.66;78.13;100856.73;1705014;84;21178;-62
2021/05/07 04:49:44;;;;;;;31.75;15.18;;;;;;;15.71;78.32;100860.94;1735847;82;21241;-63
2021/05/07 04:52:12;;;;;;;28.57;15.05;;;;;;;15.76;78.51;100849.38;1736092;82;21268;-63
2021/05/07 04:54:40;;;;;;;29.87;15.08;;;;;;;15.84;78.42;100848.11;1704757;84;21402;-62
2021/05/07 04:57:08;;;;;;;28.25;15.90;;;;;;;15.89;78.70;100848.75;1735971;82;21195;-63
2021/05/07 04:59:36;;;;;;;34.53;16.05;;;;;;;15.97;78.53;100846.47;1735563;82;21198;-63
2021/05/07 05:02:04;;;;;;;28.15;15.75;;;;;;;16.06;78.54;100843.73;1705150;84;21197;-61
2021/05/07 05:04:32;;;;;;;28.95;15.55;;;;;;;16.14;78.28;100844.66;1735494;82;21230;-62
2021/05/07 05:07:01;;;;;;;34.10;16.57;;;;;;;16.15;78.39;100845.05;1742126;81;22147;-62
2021/05/07 05:09:30;;;;;;;29.70;16.32;;;;;;;16.14;78.63;100844.19;1723939;82;21207;-61
2021/05/07 05:11:57;;;;;;;31.33;15.68;;;;;;;16.14;78.73;100841.95;1735306;82;21218;-63
2021/05/07 05:14:25;;;;;;;35.33;16.05;;;;;;;16.15;78.89;100845.05;1793615;79;21667;-63
2021/05/07 05:16:53;;;;;;;30.82;15.13;;;;;;;16.20;78.98;100840.23;1721555;81;21215;-63
2021/05/07 05:19:22;;;;;;;28.12;15.23;;;;;;;16.25;78.79;100843.58;1769835;80;22363;-63
2021/05/07 05:21:50;;;;;;;34.00;14.65;;;;;;;16.32;78.44;100843.61;1777403;80;21185;-62
2021/05/07 05:24:17;;;;;;;30.50;14.63;;;;;;;16.43;78.07;100854.27;1794080;79;21177;-62
2021/05/07 05:26:47;;;;;;;27.62;13.80;;;;;;;16.52;77.68;100857.81;1742271;82;21179;-62
2021/05/07 05:29:15;;;;;;;22.70;13.03;;;;;;;16.64;77.27;100850.80;1811320;78;21376;-62
2021/05/07 05:31:44;;;;;;;21.68;11.20;;;;;;;16.78;76.18;100847.27;1810959;78;21802;-62
2021/05/07 05:34:12;;;;;;;17.40;8.68;;;;;;;16.84;75.70;100846.04;1742000;81;21351;-62
2021/05/07 05:36:46;;;;;;;17.40;8.75;;;;;;;16.95;74.82;100853.52;1810322;79;21416;-61
2021/05/07 05:39:10;;;;;;;13.68;8.33;;;;;;;17.07;73.77;100847.37;1742149;80;21670;-63
2021/05/07 05:41:37;;;;;;;17.45;8.40;;;;;;;17.23;73.06;100861.34;1720110;82;21180;-62
2021/05/07 05:44:07;;;;;;;18.10;7.37;;;;;;;17.35;72.31;100857.00;1741901;82;22076;-62
2021/05/07 05:46:37;;;;;;;18.62;6.65;;;;;;;17.45;71.65;100853.63;1726894;81;21249;-62
2021/05/07 05:49:05;;;;;;;10.53;5.90;;;;;;;17.56;70.99;100854.77;1753235;80;21649;-62
2021/05/07 05:51:33;;;;;;;10.08;5.03;;;;;;;17.67;70.34;100853.63;1737195;81;21201;-62
2021/05/07 05:54:04;;;;;;;13.10;5.00;;;;;;;17.76;69.85;100860.31;1803868;79;21511;-62
2021/05/07 05:56:32;;;;;;;11.85;4.50;;;;;;;17.85;69.31;100861.56;1788430;79;21225;-62
2021/05/07 05:59:00;;;;;;;13.18;4.70;;;;;;;17.92;68.71;100859.34;1794151;79;21221;-62
2021/05/07 06:01:28;;;;;;;12.30;4.28;;;;;;;17.98;68.64;100853.00;1754235;80;21170;-63
2021/05/07 06:03:56;;;;;;;10.58;3.92;;;;;;;18.06;68.37;100859.83;1719968;82;21616;-65
2021/05/07 06:06:24;;;;;;;10.30;3.92;;;;;;;18.10;67.95;100858.15;1730055;81;21602;-62
2021/05/07 06:08:52;;;;;;;10.85;4.05;;;;;;;18.13;67.50;100858.45;1748099;80;22210;-64
2021/05/07 06:11:23;;;;;;;7.50;3.47;;;;;;;18.18;67.62;100854.94;1762534;80;21678;-65
2021/05/07 06:13:53;;;;;;;6.87;3.50;;;;;;;18.19;67.28;100867.53;1735866;80;21226;-66
2021/05/07 06:16:23;;;;;;;8.35;3.40;;;;;;;18.24;67.29;100866.77;1753811;80;21838;-65
2021/05/07 06:18:51;;;;;;;12.00;3.83;;;;;;;18.27;67.10;100869.28;1787521;78;21105;-65
2021/05/07 06:21:21;;;;;;;6.00;3.27;;;;;;;18.28;67.01;100871.02;1791712;78;21198;-65
2021/05/07 06:23:51;;;;;;;6.72;3.40;;;;;;;18.30;66.85;100869.55;1785581;79;21199;-63
2021/05/07 06:26:20;;;;;;;9.33;3.37;;;;;;;18.29;66.96;100869.16;1763444;79;21170;-62
2021/05/07 06:28:48;;;;;;;9.33;3.60;;;;;;;18.30;66.79;100877.22;1777315;78;21338;-63
2021/05/07 06:31:16;;;;;;;7.97;3.25;;;;;;;18.33;67.08;100872.94;1723692;81;21218;-63
2021/05/07 06:33:44;;;;;;;7.65;3.05;;;;;;;18.44;66.97;100879.48;1744093;80;22348;-65
2021/05/07 06:36:15;;;;;;;10.38;3.20;;;;;;;18.52;66.88;100888.01;1751812;80;21158;-65
2021/05/07 06:38:43;;;;;;;9.98;3.40;;;;;;;18.60;66.32;100891.07;1784801;79;21388;-63
2021/05/07 06:41:17;;;;;;;9.58;3.20;;;;;;;18.64;66.36;100894.47;1759253;79;21158;-66
2021/05/07 06:43:45;;;;;;;10.32;3.27;;;;;;;18.66;65.81;100898.41;1785344;79;21186;-65
2021/05/07 06:46:15;;;;;;;9.48;3.60;;;;;;;18.72;65.79;100900.74;1779817;79;21239;-64
2021/05/07 06:48:47;;;;;;;8.30;3.00;;;;;;;18.78;65.41;100897.61;1760677;79;21293;-67
2021/05/07 06:51:15;;;;;;;8.88;3.25;;;;;;;18.86;65.27;100892.51;1776590;79;21237;-65
2021/05/07 06:53:45;;;;;;;10.95;3.17;;;;;;;18.90;64.88;100902.22;1779375;79;21225;-66
2021/05/07 06:56:19;;;;;;;6.70;2.98;;;;;;;18.95;64.91;100901.03;1723321;80;21544;-64
2021/05/07 06:58:44;;;;;;;5.83;3.37;;;;;;;18.92;64.92;100904.81;1743103;80;21723;-64
2021/05/07 07:01:13;;;;;;;6.58;3.10;;;;;;;18.85;65.49;100901.64;1747091;80;21238;-64
2021/05/07 07:03:42;;;;;;;9.48;3.47;;;;;;;18.76;66.06;100902.27;1748773;80;21669;-64
2021/05/07 07:06:14;;;;;;;9.63;3.58;;;;;;;18.68;66.49;100905.97;1729755;82;21582;-63
2021/05/07 07:08:43;;;;;;;8.60;2.95;;;;;;;18.57;67.02;100902.64;1754596;80;21209;-63
2021/05/07 07:11:11;;;;;;;8.50;3.77;;;;;;;18.49;67.79;100897.72;1719273;82;21673;-64
2021/05/07 07:13:46;;;;;;;5.85;2.80;;;;;;;18.44;68.17;100882.20;1718338;82;21561;-64
2021/05/07 07:16:15;;;;;;;7.62;3.42;;;;;;;18.40;68.50;100880.19;1753769;80;21414;-65
2021/05/07 07:18:56;;;;;;;12.78;3.87;;;;;;;18.33;68.80;100872.94;1725117;81;21226;-65
2021/05/07 07:21:24;;;;;;;5.42;3.22;;;;;;;18.27;69.20;100869.75;1730681;81;21221;-65
2021/05/07 07:23:53;;;;;;;7.90;3.52;;;;;;;18.24;69.48;100865.89;1713602;82;21838;-65
2021/05/07 07:26:22;;;;;;;13.62;4.08;;;;;;;18.21;69.58;100885.08;1728129;82;21621;-65
2021/05/07 07:28:54;;;;;;;6.70;3.40;;;;;;;18.18;69.63;100878.00;1748234;80;21291;-65
2021/05/07 07:31:22;;;;;;;12.98;3.65;;;;;;;18.12;69.83;100878.41;1756863;80;21225;-65
2021/05/07 07:33:50;;;;;;;6.65;3.00;;;;;;;18.11;69.94;100885.66;1757950;80;21393;-64
2021/05/07 07:36:18;;;;;;;6.78;3.37;;;;;;;18.15;70.04;100883.63;1752796;80;21652;-65
2021/05/07 07:38:46;;;;;;;8.90;4.00;;;;;;;18.17;69.93;100886.65;1700797;82;21265;-67
2021/05/07 07:41:16;;;;;;;7.67;3.45;;;;;;;18.17;69.90;100904.28;1764359;80;21146;-68
2021/05/07 07:43:44;;;;;;;10.23;3.83;;;;;;;18.15;70.05;100895.38;1709133;82;21623;-67
2021/05/07 07:46:17;;;;;;;10.13;4.10;;;;;;;18.18;70.33;100887.50;1758532;80;21162;-66
2021/05/07 07:48:47;;;;;;;10.03;3.50;;;;;;;18.26;70.25;100885.65;1757775;80;21833;-64
2021/05/07 07:51:16;;;;;;;7.30;3.72;;;;;;;18.31;69.85;100872.64;1757869;80;21900;-66
2021/05/07 07:53:46;;;;;;;8.38;3.52;;;;;;;18.32;69.80;100873.91;1758796;80;21206;-66
2021/05/07 07:56:15;;;;;;;8.03;3.65;;;;;;;18.31;69.64;100881.67;1759473;79;21197;-66
2021/05/07 07:58:45;;;;;;;9.55;3.17;;;;;;;18.30;70.00;100873.61;1760172;79;21174;-64
2021/05/07 08:01:18;;;;;;;8.73;3.70;;;;;;;18.29;69.96;100888.16;1762146;80;21379;-64
2021/05/07 08:03:47;;;;;;;11.63;3.58;;;;;;;18.29;69.89;100889.05;1706366;82;21212;-65
2021/05/07 08:06:17;;;;;;;7.17;3.77;;;;;;;18.28;69.92;100892.73;1761149;80;21221;-65
2021/05/07 08:08:51;;;;;;;11.85;3.72;;;;;;;18.26;70.02;100887.89;1756328;80;21201;-63
2021/05/07 08:11:19;;;;;;;8.10;3.27;;;;;;;18.21;70.19;100891.36;1757480;80;21213;-64
2021/05/07 08:13:48;;;;;;;10.50;3.17;;;;;;;18.19;70.31;100889.23;1754021;80;21201;-64
2021/05/07 08:16:16;;;;;;;8.60;3.58;;;;;;;18.15;70.56;100888.59;1759452;79;21146;-65
2021/05/07 08:18:45;;;;;;;7.03;3.60;;;;;;;18.07;70.56;100884.63;1757382;80;21099;-64
2021/05/07 08:21:13;;;;;;;10.55;3.60;;;;;;;17.97;70.79;100885.67;1759940;79;21120;-63
2021/05/07 08:23:42;;;;;;;12.80;3.77;;;;;;;17.85;71.07;100893.61;1776996;79;21225;-64
2021/05/07 08:26:14;;;;;;;12.15;4.12;;;;;;;17.76;71.35;100900.48;1776346;79;21541;-66
2021/05/07 08:28:44;;;;;;;11.25;3.90;;;;;;;17.72;71.80;100894.87;1773260;79;21237;-61
2021/05/07 08:31:13;;;;;;;8.90;3.60;;;;;;;17.78;72.10;100899.52;1774773;79;21177;-66
2021/05/07 08:33:46;;;;;;;9.23;3.25;;;;;;;17.87;71.89;100893.52;1779002;79;21223;-64
2021/05/07 08:36:18;;;;;;;10.45;3.85;;;;;;;17.94;71.58;100897.58;1776718;79;21114;-64
2021/05/07 08:38:46;;;;;;;10.85;3.60;;;;;;;17.98;71.44;100880.13;1780057;79;21184;-62
2021/05/07 08:41:17;;;;;;;10.53;3.50;;;;;;;18.01;71.27;100886.73;1772016;79;21166;-63
2021/05/07 08:43:54;;;;;;;9.55;3.60;;;;;;;17.99;71.43;100891.36;1754097;79;21265;-66
2021/05/07 08:46:22;;;;;;;11.63;3.17;;;;;;;18.02;71.38;100883.09;1769832;79;21181;-65
2021/05/07 08:48:51;;;;;;;9.48;2.98;;;;;;;18.07;71.20;100879.20;1774792;79;21127;-64
2021/05/07 08:51:21;;;;;;;11.08;3.58;;;;;;;18.03;71.13;100884.83;1719027;82;21776;-66
2021/05/07 08:53:51;;;;;;;9.63;3.25;;;;;;;18.02;71.34;100870.88;1725490;82;21192;-66
2021/05/07 08:56:29;;;;;;;11.95;3.40;;;;;;;18.03;71.30;100869.91;1778219;79;21117;-65
2021/05/07 08:58:57;;;;;;;5.85;3.20;;;;;;;18.05;71.16;100871.15;1788164;79;21860;-64
2021/05/07 09:01:43;;;;;;;10.82;3.42;;;;;;;18.01;71.06;100858.26;1775787;79;21189;-63
2021/05/07 09:04:16;;;;;;;7.47;3.60;;;;;;;17.98;71.07;100875.20;1780506;79;22031;-66
2021/05/07 09:06:56;;;;;;;10.00;3.30;;;;;;;17.96;71.10;100873.94;1776353;79;21178;-67
2021/05/07 09:09:29;;;;;;;6.30;3.00;;;;;;;18.02;71.24;100868.17;1786703;79;21691;-65
2021/05/07 09:12:02;;;;;;;11.40;3.08;;;;;;;18.12;70.98;100876.55;1772866;79;21199;-64
2021/05/07 09:14:30;;;;;;;9.08;3.30;;;;;;;18.15;70.82;100872.78;1776931;79;21187;-67
2021/05/07 09:17:02;;;;;;;8.98;3.80;;;;;;;18.21;70.76;100876.95;1772591;79;21437;-70
2021/05/07 09:19:32;;;;;;;11.48;3.12;;;;;;;18.24;70.48;100861.34;1782398;78;21190;-68
2021/05/07 09:22:13;;;;;;;11.10;3.25;;;;;;;18.24;70.49;100869.48;1722836;80;21139;-63
2021/05/07 09:25:13;;;;;;;8.50;3.00;;;;;;;18.19;70.56;100870.25;1707698;81;21193;-66
2021/05/07 09:27:41;;;;;;;10.55;3.20;;;;;;;18.17;71.02;100880.33;1737199;80;21165;-64
2021/05/07 09:30:25;;;;;;;9.40;3.00;;;;;;;18.14;71.13;100873.28;1733953;81;21376;-67
2021/05/07 09:32:54;;;;;;;7.20;3.10;;;;;;;18.08;71.30;100874.16;1731588;81;21165;-66
2021/05/07 09:35:33;;;;;;;11.00;3.52;;;;;;;17.98;71.60;100867.92;1762473;80;21518;-66
2021/05/07 09:38:09;;;;;;;8.33;2.90;;;;;;;17.86;71.72;100866.02;1740869;81;21464;-65
2021/05/07 09:40:38;;;;;;;8.95;2.92;;;;;;;17.71;72.07;100872.80;1740172;81;21157;-67
2021/05/07 09:43:20;;;;;;;10.65;3.65;;;;;;;17.56;72.66;100866.50;1742660;81;22077;-66
2021/05/07 09:45:50;;;;;;;12.33;3.15;;;;;;;17.41;73.13;100854.78;1744781;81;21540;-67
2021/05/07 09:48:23;;;;;;;7.58;3.87;;;;;;;17.27;73.69;100861.53;1749946;81;21666;-67
2021/05/07 09:51:02;;;;;;;11.53;3.25;;;;;;;17.17;74.34;100855.81;1737796;81;21277;-67
2021/05/07 09:53:34;;;;;;;6.28;3.45;;;;;;;17.05;74.98;100853.37;1733902;81;21223;-68
2021/05/07 09:56:17;;;;;;;8.30;2.87;;;;;;;16.94;75.72;100853.98;1744980;81;22128;-67
2021/05/07 09:58:45;;;;;;;8.40;2.72;;;;;;;16.86;76.13;100846.31;1748661;80;21619;-66
2021/05/07 10:01:14;;;;;;;5.97;2.80;;;;;;;16.80;76.53;100852.11;1744130;81;21161;-66
2021/05/07 10:03:43;;;;;;;12.30;3.40;;;;;;;16.66;77.05;100836.70;1771477;80;21188;-67
2021/05/07 10:06:11;;;;;;;12.28;3.05;;;;;;;16.55;77.52;100841.39;1744386;80;21222;-69
2021/05/07 10:08:46;;;;;;;12.07;3.20;;;;;;;16.48;78.01;100833.25;1739269;80;21382;-65
2021/05/07 10:11:18;;;;;;;5.72;2.87;;;;;;;16.36;78.47;100829.89;1737089;81;21209;-66
2021/05/07 10:13:51;;;;;;;9.08;3.08;;;;;;;16.27;79.10;100825.89;1740068;81;21118;-65
2021/05/07 10:16:29;;;;;;;8.18;3.62;;;;;;;16.24;79.50;100821.52;1746112;81;21118;-66
2021/05/07 10:19:03;;;;;;;10.03;3.30;;;;;;;16.25;79.68;100819.69;1744682;81;21197;-66
2021/05/07 10:21:49;;;;;;;13.98;3.05;;;;;;;16.24;79.91;100818.80;1734319;81;21240;-67
2021/05/07 10:24:19;;;;;;;13.88;3.15;;;;;;;16.19;80.09;100811.45;1700455;83;21662;-68
2021/05/07 10:26:52;;;;;;;8.45;3.12;;;;;;;16.12;80.33;100813.63;1703858;81;21665;-66
2021/05/07 10:29:35;;;;;;;24.77;3.40;;;;;;;16.07;80.61;100808.11;1736881;82;21110;-66
2021/05/07 10:32:19;;;;;;;8.28;3.30;;;;;;;16.03;80.89;100808.30;1675368;82;21122;-66
2021/05/07 10:34:49;;;;;;;11.95;4.10;;;;;;;16.02;81.07;100809.22;1728748;82;21644;-67
2021/05/07 10:37:17;;;;;;;14.93;3.75;;;;;;;16.03;81.26;100807.41;1732687;82;21217;-67
2021/05/07 10:42:26;;;;;;;12.82;3.60;;;;;;;16.11;81.32;100801.56;1819044;77;28566;-70
2021/05/07 10:44:54;;;;;;;8.95;3.02;;;;;;;16.10;81.41;100806.58;1793222;78;21426;-69
2021/05/07 10:47:36;;;;;;;11.48;3.02;;;;;;;16.14;81.39;100802.73;1786557;78;21489;-68
2021/05/07 10:50:16;;;;;;;7.67;3.10;;;;;;;16.14;81.45;100795.50;1793795;78;21119;-68
2021/05/07 10:52:44;;;;;;;9.65;3.00;;;;;;;16.16;81.42;100792.23;1785588;79;21076;-69
2021/05/07 10:55:15;;;;;;;9.45;3.00;;;;;;;16.20;81.19;100798.31;1788478;78;21087;-69
2021/05/07 10:57:45;;;;;;;8.13;3.00;;;;;;;16.24;80.97;100794.46;1792105;78;21175;-69
2021/05/07 11:00:15;;;;;;;6.97;2.98;;;;;;;16.30;80.96;100787.36;1746816;78;21388;-67
2021/05/07 11:02:52;;;;;;;7.87;2.70;;;;;;;16.44;80.75;100785.66;1794922;78;21051;-67
2021/05/07 11:05:43;;;;;;;9.98;2.92;;;;;;;16.58;80.23;100787.07;1789054;78;21479;-67
2021/05/07 11:08:11;;;;;;;9.45;2.90;;;;;;;16.73;79.44;100780.36;1797872;79;21489;-68
2021/05/07 11:10:43;;;;;;;9.53;3.17;;;;;;;16.81;78.79;100778.04;1798296;78;21181;-68
2021/05/07 11:13:17;;;;;;;8.33;2.60;;;;;;;16.89;77.61;100770.31;1795105;78;21197;-67
2021/05/07 11:16:00;;;;;;;6.08;2.40;;;;;;;16.97;77.20;100768.98;1791267;78;21691;-67
2021/05/07 11:18:30;;;;;;;11.70;3.08;;;;;;;17.03;76.78;100768.63;1799427;78;21173;-66
2021/05/07 11:21:01;;;;;;;8.90;2.95;;;;;;;17.04;76.93;100772.61;1793042;78;21189;-66
2021/05/07 11:23:39;;;;;;;6.97;2.42;;;;;;;17.07;76.62;100752.57;1794126;78;21137;-68
2021/05/07 11:26:07;;;;;;;7.85;2.80;;;;;;;17.04;76.67;100762.25;1796658;78;21640;-66
2021/05/07 11:28:44;;;;;;;12.98;2.55;;;;;;;17.03;76.61;100763.22;1787572;78;21246;-66
2021/05/07 11:31:31;;;;;;;8.43;3.12;;;;;;;17.06;76.55;100746.77;1796503;78;21221;-68
2021/05/07 11:33:59;;;;;;;9.18;2.83;;;;;;;17.11;76.37;100752.76;1739918;81;21229;-64
2021/05/07 11:36:28;;;;;;;7.17;2.80;;;;;;;17.14;76.15;100743.11;1732660;80;21252;-67
2021/05/07 11:38:57;;;;;;;13.85;3.12;;;;;;;17.14;75.81;100751.70;1752139;80;21217;-70